createdAt,value
2017-11-20T00:01:17.909Z,3.00
2017-11-20T00:03:45.441Z,3.00
2017-11-20T00:06:25.059Z,3.00
2017-11-20T00:11:23.916Z,3.00
2017-11-20T00:13:51.540Z,3.00
2017-11-20T00:16:19.099Z,3.00
2017-11-20T00:18:46.637Z,3.00
2017-11-20T00:21:15.488Z,3.00
2017-11-20T00:23:43.012Z,3.00
2017-11-20T00:26:10.697Z,3.00
2017-11-20T00:28:38.257Z,2.90
2017-11-20T00:31:05.794Z,2.90
2017-11-20T00:33:33.334Z,2.90
2017-11-20T00:36:01.683Z,2.90
2017-11-20T00:38:29.203Z,2.80
2017-11-20T00:40:56.767Z,2.80
2017-11-20T00:43:24.326Z,2.80
2017-11-20T00:45:52.008Z,2.90
2017-11-20T00:48:19.597Z,2.90
2017-11-20T00:50:47.165Z,2.90
2017-11-20T00:53:16.480Z,2.90
2017-11-20T00:55:44.017Z,2.90
2017-11-20T00:58:11.600Z,2.90
2017-11-20T01:00:39.895Z,2.90
2017-11-20T01:03:07.465Z,2.90
2017-11-20T01:05:35.012Z,3.00
2017-11-20T01:08:02.541Z,2.90
2017-11-20T01:10:30.836Z,2.90
2017-11-20T01:12:58.388Z,2.90
2017-11-20T01:15:25.916Z,2.90
2017-11-20T01:17:53.456Z,2.90
2017-11-20T01:20:21.049Z,3.00
2017-11-20T01:22:49.341Z,2.90
2017-11-20T01:25:16.877Z,2.90
2017-11-20T01:27:44.673Z,2.90
2017-11-20T01:30:12.200Z,3.00
2017-11-20T01:32:39.740Z,3.00
2017-11-20T01:35:07.288Z,3.00
2017-11-20T01:37:34.816Z,3.00
2017-11-20T01:40:02.366Z,3.00
2017-11-20T01:42:29.942Z,3.00
2017-11-20T01:44:57.473Z,3.00
2017-11-20T01:47:25.002Z,3.10
2017-11-20T01:49:52.578Z,3.10
2017-11-20T01:52:20.877Z,3.10
2017-11-20T01:54:48.409Z,3.10
2017-11-20T01:57:16.467Z,3.10
2017-11-20T01:59:43.996Z,3.10
2017-11-20T02:02:11.523Z,3.10
2017-11-20T02:04:39.137Z,3.10
2017-11-20T02:07:06.699Z,3.10
2017-11-20T02:09:34.303Z,3.10
2017-11-20T02:12:01.853Z,3.10
2017-11-20T02:14:29.389Z,3.10
2017-11-20T02:16:56.916Z,3.00
2017-11-20T02:19:24.479Z,3.10
2017-11-20T02:21:52.011Z,3.00
2017-11-20T02:24:19.555Z,3.00
2017-11-20T02:26:47.171Z,3.00
2017-11-20T02:29:16.800Z,3.00
2017-11-20T02:31:44.333Z,3.00
2017-11-20T02:34:11.928Z,3.10
2017-11-20T02:36:39.480Z,3.10
2017-11-20T02:39:07.778Z,3.10
2017-11-20T02:41:35.326Z,3.00
2017-11-20T02:44:02.953Z,3.00
2017-11-20T02:46:30.503Z,3.00
2017-11-20T02:48:58.097Z,3.00
2017-11-20T02:51:26.389Z,3.00
2017-11-20T02:53:53.929Z,3.00
2017-11-20T02:56:22.280Z,3.00
2017-11-20T02:58:49.814Z,3.00
2017-11-20T03:01:17.388Z,3.00
2017-11-20T03:03:44.948Z,3.00
2017-11-20T03:06:12.493Z,3.00
2017-11-20T03:08:40.024Z,3.00
2017-11-20T03:11:07.617Z,3.00
2017-11-20T03:13:35.144Z,2.90
2017-11-20T03:16:02.681Z,2.90
2017-11-20T03:18:30.268Z,2.90
2017-11-20T03:20:57.801Z,2.90
2017-11-20T03:23:25.344Z,2.90
2017-11-20T03:25:52.900Z,2.90
2017-11-20T03:28:21.285Z,3.00
2017-11-20T03:30:50.628Z,2.90
2017-11-20T03:33:18.241Z,3.00
2017-11-20T03:35:45.783Z,3.00
2017-11-20T03:38:14.651Z,2.90
2017-11-20T03:40:42.973Z,2.90
2017-11-20T03:43:11.288Z,3.00
2017-11-20T03:45:38.810Z,3.00
2017-11-20T03:48:06.375Z,2.90
2017-11-20T03:50:34.669Z,2.90
2017-11-20T03:53:02.192Z,2.90
2017-11-20T03:55:30.127Z,2.90
2017-11-20T03:57:57.663Z,2.90
2017-11-20T04:00:25.189Z,2.90
2017-11-20T04:02:52.741Z,2.90
2017-11-20T04:05:21.049Z,2.90
2017-11-20T04:07:48.577Z,2.90
2017-11-20T04:10:16.553Z,2.90
2017-11-20T04:12:44.848Z,2.80
2017-11-20T04:15:12.372Z,2.80
2017-11-20T04:17:40.715Z,2.90
2017-11-20T04:20:08.251Z,2.80
2017-11-20T04:22:35.808Z,2.90
2017-11-20T04:25:03.358Z,2.90
2017-11-20T04:27:30.890Z,2.90
2017-11-20T04:29:58.412Z,2.90
2017-11-20T04:32:25.981Z,2.80
2017-11-20T04:34:53.536Z,2.80
2017-11-20T04:37:21.071Z,2.80
2017-11-20T04:39:48.696Z,2.80
2017-11-20T04:42:16.402Z,2.80
2017-11-20T04:44:43.945Z,2.80
2017-11-20T04:47:11.528Z,2.80
2017-11-20T04:49:39.066Z,2.80
2017-11-20T04:52:06.605Z,2.80
2017-11-20T04:54:34.168Z,2.80
2017-11-20T04:57:01.704Z,2.80
2017-11-20T04:59:29.996Z,2.80
2017-11-20T05:01:58.374Z,2.80
2017-11-20T05:04:27.575Z,2.80
2017-11-20T05:06:55.140Z,2.80
2017-11-20T05:09:22.766Z,2.70
2017-11-20T05:11:50.288Z,2.70
2017-11-20T05:14:17.832Z,2.70
2017-11-20T05:16:45.440Z,2.70
2017-11-20T05:19:24.366Z,2.80
2017-11-20T05:23:57.721Z,2.80
2017-11-20T05:26:25.308Z,2.70
2017-11-20T05:28:53.057Z,2.70
2017-11-20T05:31:21.057Z,2.60
2017-11-20T05:33:49.450Z,2.60
2017-11-20T05:36:17.220Z,2.70
2017-11-20T05:38:45.202Z,2.70
2017-11-20T05:41:13.812Z,2.60
2017-11-20T05:43:41.356Z,2.60
2017-11-20T05:46:09.270Z,2.60
2017-11-20T05:48:36.840Z,2.60
2017-11-20T05:51:05.162Z,2.60
2017-11-20T05:53:32.890Z,2.60
2017-11-20T05:56:00.428Z,2.60
2017-11-20T05:58:27.986Z,2.60
2017-11-20T06:00:55.564Z,2.60
2017-11-20T06:03:23.869Z,2.60
2017-11-20T06:05:51.404Z,2.60
2017-11-20T06:08:19.756Z,2.60
2017-11-20T06:10:47.291Z,2.50
2017-11-20T06:13:16.395Z,2.50
2017-11-20T06:15:43.944Z,2.50
2017-11-20T06:18:11.694Z,2.50
2017-11-20T06:20:39.328Z,2.50
2017-11-20T06:23:06.896Z,2.50
2017-11-20T06:25:34.437Z,2.40
2017-11-20T06:28:02.748Z,2.40
2017-11-20T06:30:30.333Z,2.40
2017-11-20T06:32:57.894Z,2.30
2017-11-20T06:35:26.051Z,2.20
2017-11-20T06:37:53.609Z,2.20
2017-11-20T06:40:21.144Z,2.10
2017-11-20T06:42:48.676Z,2.20
2017-11-20T06:45:16.477Z,2.10
2017-11-20T06:47:44.108Z,2.10
2017-11-20T06:50:11.644Z,2.10
2017-11-20T06:52:39.234Z,2.20
2017-11-20T06:55:06.771Z,2.20
2017-11-20T06:57:35.072Z,2.30
2017-11-20T07:00:02.628Z,2.30
2017-11-20T07:02:30.166Z,2.40
2017-11-20T07:04:58.455Z,2.40
2017-11-20T07:07:26.784Z,2.40
2017-11-20T07:09:54.352Z,2.40
2017-11-20T07:12:21.896Z,2.40
2017-11-20T07:14:49.511Z,2.50
2017-11-20T07:17:17.805Z,2.60
2017-11-20T07:19:45.345Z,2.60
2017-11-20T07:22:25.531Z,2.70
2017-11-20T07:30:45.122Z,2.70
2017-11-20T07:33:14.352Z,2.70
2017-11-20T07:35:48.161Z,2.70
2017-11-20T07:38:18.261Z,2.80
2017-11-20T07:40:57.569Z,2.80
2017-11-20T07:43:25.864Z,2.70
2017-11-20T07:45:53.400Z,2.70
2017-11-20T07:48:21.748Z,2.60
2017-11-20T07:50:49.284Z,2.60
2017-11-20T07:53:16.809Z,2.60
2017-11-20T07:55:44.365Z,2.60
2017-11-20T07:58:11.900Z,2.70
2017-11-20T08:00:40.193Z,2.80
2017-11-20T08:03:08.545Z,2.90
2017-11-20T08:05:36.081Z,2.90
2017-11-20T08:08:04.376Z,3.00
2017-11-20T08:10:31.972Z,3.00
2017-11-20T08:12:59.511Z,3.10
2017-11-20T08:15:27.803Z,3.10
2017-11-20T08:17:55.359Z,3.10
2017-11-20T08:20:22.888Z,3.20
2017-11-20T08:22:50.535Z,3.40
2017-11-20T08:25:18.112Z,3.50
2017-11-20T08:27:45.644Z,3.70
2017-11-20T08:30:25.774Z,3.90
2017-11-20T08:35:31.855Z,3.80
2017-11-20T08:37:59.534Z,3.70
2017-11-20T08:40:27.073Z,3.70
2017-11-20T08:42:54.651Z,3.70
2017-11-20T08:45:22.189Z,3.70
2017-11-20T08:47:49.712Z,3.60
2017-11-20T08:50:18.068Z,3.50
2017-11-20T08:52:45.597Z,3.50
2017-11-20T08:55:25.529Z,3.40
2017-11-20T09:06:28.117Z,3.40
2017-11-20T09:08:56.409Z,3.50
2017-11-20T09:11:24.705Z,3.50
2017-11-20T09:13:52.260Z,3.50
2017-11-20T09:16:19.779Z,3.60
2017-11-20T09:18:47.302Z,3.60
2017-11-20T09:21:15.488Z,3.70
2017-11-20T09:23:43.017Z,3.70
2017-11-20T09:26:10.812Z,3.70
2017-11-20T09:28:38.432Z,3.80
2017-11-20T09:31:05.960Z,3.80
2017-11-20T09:33:34.268Z,3.90
2017-11-20T09:36:01.828Z,3.90
2017-11-20T09:38:29.806Z,4.00
2017-11-20T09:40:57.400Z,4.00
2017-11-20T09:43:25.028Z,4.00
2017-11-20T09:45:52.572Z,4.00
2017-11-20T09:48:20.147Z,4.20
2017-11-20T09:50:47.811Z,4.20
2017-11-20T09:53:17.264Z,4.30
2017-11-20T09:55:45.635Z,4.50
2017-11-20T09:58:13.713Z,4.50
2017-11-20T10:03:31.997Z,4.50
2017-11-20T10:05:59.525Z,4.50
2017-11-20T10:08:27.057Z,4.40
2017-11-20T10:10:54.690Z,4.50
2017-11-20T10:13:22.224Z,4.50
2017-11-20T10:15:49.748Z,4.60
2017-11-20T10:18:17.901Z,4.60
2017-11-20T10:20:45.431Z,4.70
2017-11-20T10:23:14.641Z,4.70
2017-11-20T10:32:13.906Z,4.50
2017-11-20T10:34:41.427Z,4.50
2017-11-20T10:37:09.721Z,4.70
2017-11-20T10:39:37.892Z,4.60
2017-11-20T10:42:05.453Z,4.70
2017-11-20T10:44:32.989Z,4.60
2017-11-20T10:47:00.549Z,4.70
2017-11-20T10:49:28.227Z,4.70
2017-11-20T10:51:55.759Z,4.80
2017-11-20T10:54:23.345Z,4.80
2017-11-20T10:56:50.881Z,4.80
2017-11-20T10:59:18.440Z,4.80
2017-11-20T11:01:46.033Z,4.90
2017-11-20T11:04:15.423Z,4.80
2017-11-20T11:06:42.973Z,4.80
2017-11-20T11:09:10.531Z,4.90
2017-11-20T11:11:38.079Z,4.90
2017-11-20T11:14:05.613Z,4.80
2017-11-20T11:16:33.967Z,4.70
2017-11-20T11:19:01.517Z,4.70
2017-11-20T11:21:29.099Z,4.70
2017-11-20T11:23:56.672Z,4.70
2017-11-20T11:26:24.980Z,4.70
2017-11-20T11:28:52.507Z,4.60
2017-11-20T11:31:21.627Z,4.70
2017-11-20T11:33:49.161Z,4.70
2017-11-20T11:36:16.700Z,4.70
2017-11-20T11:38:44.296Z,4.70
2017-11-20T11:41:13.707Z,4.70
2017-11-20T11:43:39.425Z,4.80
2017-11-20T11:46:06.997Z,4.70
2017-11-20T11:48:34.519Z,4.70
2017-11-20T11:51:02.040Z,4.70
2017-11-20T11:53:30.455Z,4.80
2017-11-20T11:55:58.014Z,4.80
2017-11-20T11:58:26.316Z,4.70
2017-11-20T12:00:54.409Z,4.70
2017-11-20T12:03:21.963Z,4.80
2017-11-20T12:05:49.500Z,4.70
2017-11-20T12:08:17.070Z,4.60
2017-11-20T12:10:44.602Z,4.60
2017-11-20T12:13:14.043Z,4.60
2017-11-20T12:15:41.610Z,4.60
2017-11-20T12:18:09.156Z,4.50
2017-11-20T12:20:36.814Z,4.60
2017-11-20T12:23:04.408Z,4.50
2017-11-20T12:25:31.948Z,4.50
2017-11-20T12:27:59.911Z,4.50
2017-11-20T12:30:28.443Z,4.50
2017-11-20T12:32:55.976Z,4.50
2017-11-20T12:35:23.591Z,4.50
2017-11-20T12:37:51.153Z,4.50
2017-11-20T12:40:18.701Z,4.50
2017-11-20T12:42:46.572Z,4.60
2017-11-20T12:45:17.251Z,4.70
2017-11-20T12:47:44.796Z,4.70
2017-11-20T12:50:12.327Z,4.70
2017-11-20T12:52:39.894Z,4.80
2017-11-20T12:55:07.446Z,4.80
2017-11-20T12:57:35.196Z,4.70
2017-11-20T13:00:02.747Z,4.70
2017-11-20T13:02:30.301Z,4.70
2017-11-20T13:04:58.596Z,4.70
2017-11-20T13:07:26.222Z,4.70
2017-11-20T13:09:54.518Z,4.60
2017-11-20T13:12:22.812Z,4.60
2017-11-20T13:14:50.385Z,4.60
2017-11-20T13:17:17.917Z,4.60
2017-11-20T13:19:45.453Z,4.70
2017-11-20T13:22:13.655Z,4.70
2017-11-20T13:32:14.766Z,4.70
2017-11-20T13:42:47.856Z,4.50
2017-11-20T13:45:17.181Z,4.40
2017-11-20T13:47:44.972Z,4.40
2017-11-20T13:50:12.608Z,4.50
2017-11-20T13:52:40.162Z,4.50
2017-11-20T13:55:07.712Z,4.60
2017-11-20T13:57:35.292Z,4.60
2017-11-20T14:00:03.290Z,4.60
2017-11-20T14:02:30.835Z,4.70
2017-11-20T14:04:58.405Z,4.70
2017-11-20T14:07:26.703Z,4.70
2017-11-20T14:09:54.225Z,4.70
2017-11-20T14:12:21.813Z,4.70
2017-11-20T14:14:49.343Z,4.70
2017-11-20T14:17:16.885Z,4.70
2017-11-20T14:19:44.519Z,4.70
2017-11-20T14:22:13.862Z,4.60
2017-11-20T14:24:41.531Z,4.60
2017-11-20T14:27:09.129Z,4.50
2017-11-20T14:29:36.668Z,4.60
2017-11-20T14:32:04.235Z,4.50
2017-11-20T14:34:31.885Z,4.40
2017-11-20T14:36:59.408Z,4.40
2017-11-20T14:39:27.710Z,4.30
2017-11-20T14:41:55.419Z,4.20
2017-11-20T14:44:24.001Z,4.10
2017-11-20T14:46:53.190Z,4.10
2017-11-20T14:49:22.109Z,4.00
2017-11-20T14:54:54.594Z,4.10
2017-11-20T14:57:22.144Z,4.10
2017-11-20T14:59:50.485Z,4.10
2017-11-20T15:02:18.115Z,4.10
2017-11-20T15:04:45.644Z,4.10
2017-11-20T15:07:14.446Z,4.00
2017-11-20T15:15:42.119Z,3.90
2017-11-20T15:18:09.641Z,3.60
2017-11-20T15:20:37.173Z,3.70
2017-11-20T15:23:04.850Z,3.70
2017-11-20T15:25:32.388Z,3.80
2017-11-20T15:27:59.926Z,3.80
2017-11-20T15:30:27.489Z,3.80
2017-11-20T15:32:55.901Z,3.90
2017-11-20T15:35:23.448Z,3.90
2017-11-20T15:37:51.283Z,3.90
2017-11-20T15:40:19.927Z,4.00
2017-11-20T15:42:47.820Z,4.00
2017-11-20T15:45:17.413Z,4.00
2017-11-20T15:47:45.178Z,4.00
2017-11-20T15:50:13.665Z,4.10
2017-11-20T15:52:41.243Z,4.10
2017-11-20T15:55:08.777Z,4.10
2017-11-20T15:57:36.332Z,4.10
2017-11-20T16:00:03.914Z,4.20
2017-11-20T16:02:32.208Z,4.10
2017-11-20T16:05:00.504Z,4.10
2017-11-20T16:07:28.077Z,4.10
2017-11-20T16:09:55.602Z,4.00
2017-11-20T16:12:23.908Z,4.00
2017-11-20T16:14:51.451Z,4.00
2017-11-20T16:17:18.980Z,4.00
2017-11-20T16:19:47.363Z,4.10
2017-11-20T16:22:16.472Z,4.00
2017-11-20T16:24:44.008Z,4.00
2017-11-20T16:27:12.310Z,4.00
2017-11-20T16:29:39.924Z,4.00
2017-11-20T16:32:07.476Z,4.00
2017-11-20T16:34:35.031Z,4.00
2017-11-20T16:37:02.612Z,4.10
2017-11-20T16:39:30.820Z,4.10
2017-11-20T16:41:58.360Z,4.10
2017-11-20T16:44:25.950Z,4.10
2017-11-20T16:46:53.499Z,4.10
2017-11-20T16:49:21.038Z,4.20
2017-11-20T16:51:49.368Z,4.00
2017-11-20T16:54:16.896Z,4.00
2017-11-20T16:56:56.311Z,4.00
2017-11-20T16:59:24.644Z,4.00
2017-11-20T17:02:01.117Z,4.00
2017-11-20T17:04:28.673Z,4.00
2017-11-20T17:06:56.230Z,4.00
2017-11-20T17:09:23.794Z,3.90
2017-11-20T17:11:51.337Z,4.00
2017-11-20T17:14:18.907Z,3.90
2017-11-20T17:16:46.512Z,3.90
2017-11-20T17:19:25.474Z,3.90
2017-11-20T17:26:23.414Z,3.90
2017-11-20T17:28:50.952Z,3.80
2017-11-20T17:31:18.502Z,3.80
2017-11-20T17:33:46.089Z,3.90
2017-11-20T17:36:16.613Z,3.90
2017-11-20T17:38:44.154Z,3.90
2017-11-20T17:41:11.880Z,4.00
2017-11-20T17:43:39.453Z,4.10
2017-11-20T17:46:06.996Z,4.20
2017-11-20T17:48:35.305Z,4.20
2017-11-20T17:51:02.853Z,4.20
2017-11-20T17:53:30.423Z,4.30
2017-11-20T17:55:58.012Z,4.30
2017-11-20T17:58:25.545Z,4.30
2017-11-20T18:00:53.084Z,4.30
2017-11-20T18:03:20.665Z,4.30
2017-11-20T18:05:48.202Z,4.30
2017-11-20T18:08:16.589Z,4.40
2017-11-20T18:10:44.577Z,4.40
2017-11-20T18:13:12.129Z,4.50
2017-11-20T18:15:39.683Z,4.50
2017-11-20T18:18:08.212Z,4.50
2017-11-20T18:20:35.831Z,4.50
2017-11-20T18:23:03.406Z,4.50
2017-11-20T18:25:30.971Z,4.50
2017-11-20T18:27:58.505Z,4.40
2017-11-20T18:30:26.057Z,4.40
2017-11-20T18:32:53.648Z,4.40
2017-11-20T18:35:21.175Z,4.40
2017-11-20T18:37:48.745Z,4.50
2017-11-20T18:40:16.544Z,4.40
2017-11-20T18:42:44.917Z,4.50
2017-11-20T18:45:14.149Z,4.50
2017-11-20T18:47:41.719Z,4.50
2017-11-20T18:50:09.854Z,4.50
2017-11-20T18:52:37.419Z,4.50
2017-11-20T18:55:05.749Z,4.50
2017-11-20T18:57:33.560Z,4.50
2017-11-20T19:00:13.769Z,4.50
2017-11-20T19:05:55.063Z,4.50
2017-11-20T19:08:34.472Z,4.50
2017-11-20T19:11:04.556Z,4.50
2017-11-20T19:13:32.861Z,4.50
2017-11-20T19:16:00.404Z,4.50
2017-11-20T19:18:27.985Z,4.60
2017-11-20T19:20:55.692Z,4.60
2017-11-20T19:23:24.002Z,4.70
2017-11-20T19:25:54.775Z,4.60
2017-11-20T19:28:22.304Z,4.70
2017-11-20T19:30:49.840Z,4.70
2017-11-20T19:33:18.216Z,4.70
2017-11-20T19:35:46.514Z,4.70
2017-11-20T19:38:25.164Z,4.70
2017-11-20T19:43:27.981Z,4.70
2017-11-20T19:45:55.525Z,4.70
2017-11-20T19:48:23.074Z,4.70
2017-11-20T19:50:51.305Z,4.70
2017-11-20T19:53:19.654Z,4.80
2017-11-20T19:55:47.188Z,4.80
2017-11-20T19:58:16.419Z,4.80
2017-11-20T20:00:43.956Z,4.90
2017-11-20T20:03:11.526Z,5.00
2017-11-20T20:05:39.985Z,5.00
2017-11-20T20:08:07.586Z,5.00
2017-11-20T20:10:35.959Z,4.90
2017-11-20T20:13:03.587Z,4.90
2017-11-20T20:15:43.807Z,4.90
2017-11-20T20:18:11.397Z,4.90
2017-11-20T20:20:38.921Z,4.80
2017-11-20T20:23:06.451Z,4.80
2017-11-20T20:25:34.033Z,4.80
2017-11-20T20:28:01.570Z,4.80
2017-11-20T20:30:29.133Z,4.70
2017-11-20T20:32:57.317Z,4.60
2017-11-20T20:35:25.688Z,4.50
2017-11-20T20:37:53.380Z,4.50
2017-11-20T20:40:20.967Z,4.50
2017-11-20T20:42:48.487Z,4.40
2017-11-20T20:45:16.421Z,4.40
2017-11-20T20:47:44.032Z,4.40
2017-11-20T20:50:11.617Z,4.40
2017-11-20T20:52:40.212Z,4.30
2017-11-20T20:55:09.592Z,4.20
2017-11-20T20:57:35.521Z,4.20
2017-11-20T21:00:03.300Z,4.20
2017-11-20T21:02:30.862Z,4.20
2017-11-20T21:04:59.229Z,4.10
2017-11-20T21:07:26.791Z,4.00
2017-11-20T21:10:00.097Z,4.00
2017-11-20T21:12:27.722Z,3.90
2017-11-20T21:14:55.266Z,3.90
2017-11-20T21:17:22.845Z,3.90
2017-11-20T21:19:50.408Z,3.80
2017-11-20T21:22:17.953Z,3.80
2017-11-20T21:24:45.510Z,3.80
2017-11-20T21:27:14.637Z,3.80
2017-11-20T21:29:42.275Z,3.80
2017-11-20T21:32:09.832Z,3.70
2017-11-20T21:34:37.442Z,3.70
2017-11-20T21:37:04.971Z,3.70
2017-11-20T21:39:32.548Z,3.80
2017-11-20T21:42:00.073Z,3.70
2017-11-20T21:44:27.596Z,3.80
2017-11-20T21:46:55.234Z,3.80
2017-11-20T21:49:22.769Z,3.80
2017-11-20T21:51:50.325Z,3.90
2017-11-20T21:54:18.192Z,3.90
2017-11-20T21:56:45.878Z,3.90
2017-11-20T21:59:14.640Z,3.90
2017-11-20T22:01:42.376Z,3.90
2017-11-20T22:04:09.944Z,3.90
2017-11-20T22:06:37.512Z,4.00
2017-11-20T22:09:05.207Z,4.00
2017-11-20T22:11:33.915Z,4.10
2017-11-20T22:14:02.223Z,4.00
2017-11-20T22:16:29.782Z,4.00
2017-11-20T22:18:57.309Z,4.00
2017-11-20T22:21:25.713Z,4.10
2017-11-20T22:23:53.296Z,4.10
2017-11-20T22:26:20.896Z,4.10
2017-11-20T22:28:49.214Z,4.20
2017-11-20T22:31:16.945Z,4.10
2017-11-20T22:33:44.623Z,4.20
2017-11-20T22:36:13.895Z,4.20
2017-11-20T22:38:41.807Z,4.20
2017-11-20T22:41:09.355Z,4.30
2017-11-20T22:43:36.893Z,4.30
2017-11-20T22:46:04.508Z,4.40
2017-11-20T22:48:32.029Z,4.40
2017-11-20T22:50:59.548Z,4.50
2017-11-20T22:53:27.266Z,4.50
2017-11-20T22:55:55.312Z,4.50
2017-11-20T22:58:22.852Z,4.60
2017-11-20T23:00:50.408Z,4.60
2017-11-20T23:03:18.710Z,4.60
2017-11-20T23:05:46.278Z,4.60
2017-11-20T23:08:16.667Z,4.60
2017-11-20T23:10:44.222Z,4.60
2017-11-20T23:13:11.766Z,4.70
2017-11-20T23:15:39.344Z,4.70
2017-11-20T23:18:07.636Z,4.80
2017-11-20T23:20:36.290Z,4.80
2017-11-20T23:23:04.653Z,4.90
2017-11-20T23:25:32.177Z,4.80
2017-11-20T23:27:59.705Z,4.80
2017-11-20T23:30:28.073Z,4.90
2017-11-20T23:32:55.600Z,4.80
2017-11-20T23:35:23.893Z,4.90
2017-11-20T23:37:51.452Z,4.90
2017-11-20T23:40:18.977Z,4.90
2017-11-20T23:42:46.496Z,4.90
2017-11-20T23:45:16.514Z,5.00
2017-11-20T23:47:44.042Z,5.00
2017-11-20T23:50:11.632Z,5.00
2017-11-20T23:52:39.988Z,5.00
2017-11-20T23:55:07.517Z,4.90
2017-11-20T23:57:35.467Z,5.00
